sensor_id;sensor_type;location;lat;lon;timestamp;temperature;humidity
62424;DHT22;48463;43.604;3.872;2023-07-30T00:02:18;25.00;99.90
62424;DHT22;48463;43.604;3.872;2023-07-30T00:04:45;25.00;99.90
62424;DHT22;48463;43.604;3.872;2023-07-30T00:07:11;25.00;99.90
62424;DHT22;48463;43.604;3.872;2023-07-30T00:09:38;25.00;99.90
62424;DHT22;48463;43.604;3.872;2023-07-30T00:12:05;25.00;99.90
62424;DHT22;48463;43.604;3.872;2023-07-30T00:14:31;25.00;99.90
62424;DHT22;48463;43.604;3.872;2023-07-30T00:16:58;25.00;99.90
62424;DHT22;48463;43.604;3.872;2023-07-30T00:19:25;25.00;99.90
62424;DHT22;48463;43.604;3.872;2023-07-30T00:21:50;24.90;99.90
62424;DHT22;48463;43.604;3.872;2023-07-30T00:24:17;24.90;99.90
62424;DHT22;48463;43.604;3.872;2023-07-30T00:26:42;24.90;99.90
62424;DHT22;48463;43.604;3.872;2023-07-30T00:29:10;24.90;99.90
62424;DHT22;48463;43.604;3.872;2023-07-30T00:31:36;24.90;99.90
62424;DHT22;48463;43.604;3.872;2023-07-30T00:34:03;24.80;99.90
62424;DHT22;48463;43.604;3.872;2023-07-30T00:36:30;24.80;99.90
62424;DHT22;48463;43.604;3.872;2023-07-30T00:38:55;24.90;99.90
62424;DHT22;48463;43.604;3.872;2023-07-30T00:41:21;24.90;99.90
62424;DHT22;48463;43.604;3.872;2023-07-30T00:43:46;24.80;99.90
62424;DHT22;48463;43.604;3.872;2023-07-30T00:46:13;24.90;99.90
62424;DHT22;48463;43.604;3.872;2023-07-30T00:48:39;24.80;99.90
62424;DHT22;48463;43.604;3.872;2023-07-30T00:51:06;24.80;99.90
62424;DHT22;48463;43.604;3.872;2023-07-30T00:53:33;24.80;99.90
62424;DHT22;48463;43.604;3.872;2023-07-30T00:56:00;24.80;99.90
62424;DHT22;48463;43.604;3.872;2023-07-30T00:58:26;24.70;99.90
62424;DHT22;48463;43.604;3.872;2023-07-30T01:00:53;24.70;99.90
62424;DHT22;48463;43.604;3.872;2023-07-30T01:03:19;24.70;99.90
62424;DHT22;48463;43.604;3.872;2023-07-30T01:05:45;24.80;99.90
62424;DHT22;48463;43.604;3.872;2023-07-30T01:08:11;24.70;99.90
62424;DHT22;48463;43.604;3.872;2023-07-30T01:10:38;24.70;99.90
62424;DHT22;48463;43.604;3.872;2023-07-30T01:13:06;24.70;99.90
62424;DHT22;48463;43.604;3.872;2023-07-30T01:15:33;24.80;99.90
62424;DHT22;48463;43.604;3.872;2023-07-30T01:17:59;24.80;99.90
62424;DHT22;48463;43.604;3.872;2023-07-30T01:20:30;24.70;99.90
62424;DHT22;48463;43.604;3.872;2023-07-30T01:22:56;24.70;99.90
62424;DHT22;48463;43.604;3.872;2023-07-30T01:25:24;24.70;99.90
62424;DHT22;48463;43.604;3.872;2023-07-30T01:27:54;24.70;99.90
62424;DHT22;48463;43.604;3.872;2023-07-30T01:30:26;24.80;99.90
62424;DHT22;48463;43.604;3.872;2023-07-30T01:32:52;24.70;99.90
62424;DHT22;48463;43.604;3.872;2023-07-30T01:35:22;24.60;99.90
62424;DHT22;48463;43.604;3.872;2023-07-30T01:37:51;24.60;99.90
62424;DHT22;48463;43.604;3.872;2023-07-30T01:40:18;24.50;99.90
62424;DHT22;48463;43.604;3.872;2023-07-30T01:42:43;24.40;99.90
62424;DHT22;48463;43.604;3.872;2023-07-30T01:45:09;24.30;99.90
62424;DHT22;48463;43.604;3.872;2023-07-30T01:47:35;24.20;99.90
62424;DHT22;48463;43.604;3.872;2023-07-30T01:50:02;24.40;99.90
62424;DHT22;48463;43.604;3.872;2023-07-30T01:52:28;24.50;99.90
62424;DHT22;48463;43.604;3.872;2023-07-30T01:54:54;24.50;99.90
62424;DHT22;48463;43.604;3.872;2023-07-30T01:57:21;24.50;99.90
62424;DHT22;48463;43.604;3.872;2023-07-30T01:59:47;24.50;99.90
62424;DHT22;48463;43.604;3.872;2023-07-30T02:02:13;24.50;99.90
62424;DHT22;48463;43.604;3.872;2023-07-30T02:04:38;24.50;99.90
62424;DHT22;48463;43.604;3.872;2023-07-30T02:07:04;24.50;99.90
62424;DHT22;48463;43.604;3.872;2023-07-30T02:09:30;24.50;99.90
62424;DHT22;48463;43.604;3.872;2023-07-30T02:11:55;24.40;99.90
62424;DHT22;48463;43.604;3.872;2023-07-30T02:14:21;24.40;99.90
62424;DHT22;48463;43.604;3.872;2023-07-30T02:16:46;24.30;99.90
62424;DHT22;48463;43.604;3.872;2023-07-30T02:19:12;24.30;99.90
62424;DHT22;48463;43.604;3.872;2023-07-30T02:21:38;24.30;99.90
62424;DHT22;48463;43.604;3.872;2023-07-30T02:24:11;24.30;99.90
62424;DHT22;48463;43.604;3.872;2023-07-30T02:26:40;24.40;99.90
62424;DHT22;48463;43.604;3.872;2023-07-30T02:29:05;24.40;99.90
62424;DHT22;48463;43.604;3.872;2023-07-30T02:31:31;24.40;99.90
62424;DHT22;48463;43.604;3.872;2023-07-30T02:33:57;24.50;99.90
62424;DHT22;48463;43.604;3.872;2023-07-30T02:36:24;24.50;99.90
62424;DHT22;48463;43.604;3.872;2023-07-30T02:38:50;24.60;99.90
62424;DHT22;48463;43.604;3.872;2023-07-30T02:41:16;24.60;99.90
62424;DHT22;48463;43.604;3.872;2023-07-30T02:43:41;24.60;99.90
62424;DHT22;48463;43.604;3.872;2023-07-30T02:46:07;24.70;99.90
62424;DHT22;48463;43.604;3.872;2023-07-30T02:48:33;24.60;99.90
62424;DHT22;48463;43.604;3.872;2023-07-30T02:50:58;24.50;99.90
62424;DHT22;48463;43.604;3.872;2023-07-30T02:53:25;24.50;99.90
62424;DHT22;48463;43.604;3.872;2023-07-30T02:55:51;24.50;99.90
62424;DHT22;48463;43.604;3.872;2023-07-30T02:58:17;24.50;99.90
62424;DHT22;48463;43.604;3.872;2023-07-30T03:00:43;24.50;99.90
62424;DHT22;48463;43.604;3.872;2023-07-30T03:03:09;24.50;99.90
62424;DHT22;48463;43.604;3.872;2023-07-30T03:05:35;24.50;99.90
62424;DHT22;48463;43.604;3.872;2023-07-30T03:08:02;24.40;99.90
62424;DHT22;48463;43.604;3.872;2023-07-30T03:10:28;24.40;99.90
62424;DHT22;48463;43.604;3.872;2023-07-30T03:12:53;24.40;99.90
62424;DHT22;48463;43.604;3.872;2023-07-30T03:15:19;24.40;99.90
62424;DHT22;48463;43.604;3.872;2023-07-30T03:17:44;24.40;99.90
62424;DHT22;48463;43.604;3.872;2023-07-30T03:20:10;24.40;99.90
62424;DHT22;48463;43.604;3.872;2023-07-30T03:22:36;24.40;99.90
62424;DHT22;48463;43.604;3.872;2023-07-30T03:25:02;24.40;99.90
62424;DHT22;48463;43.604;3.872;2023-07-30T03:27:28;24.50;99.90
62424;DHT22;48463;43.604;3.872;2023-07-30T03:29:54;24.50;99.90
62424;DHT22;48463;43.604;3.872;2023-07-30T03:32:20;24.40;99.90
62424;DHT22;48463;43.604;3.872;2023-07-30T03:34:47;24.40;99.90
62424;DHT22;48463;43.604;3.872;2023-07-30T03:37:12;24.30;99.90
62424;DHT22;48463;43.604;3.872;2023-07-30T03:39:39;24.20;99.90
62424;DHT22;48463;43.604;3.872;2023-07-30T03:42:05;24.20;99.90
62424;DHT22;48463;43.604;3.872;2023-07-30T03:44:30;24.10;99.90
62424;DHT22;48463;43.604;3.872;2023-07-30T03:46:56;24.20;99.90
62424;DHT22;48463;43.604;3.872;2023-07-30T03:49:22;24.30;99.90
62424;DHT22;48463;43.604;3.872;2023-07-30T03:51:47;24.10;99.90
62424;DHT22;48463;43.604;3.872;2023-07-30T03:54:13;23.90;99.90
62424;DHT22;48463;43.604;3.872;2023-07-30T03:56:39;23.90;99.90
62424;DHT22;48463;43.604;3.872;2023-07-30T03:59:04;24.10;99.90
62424;DHT22;48463;43.604;3.872;2023-07-30T04:01:30;24.00;99.90
62424;DHT22;48463;43.604;3.872;2023-07-30T04:03:56;24.00;99.90
62424;DHT22;48463;43.604;3.872;2023-07-30T04:06:21;24.10;99.90
62424;DHT22;48463;43.604;3.872;2023-07-30T04:08:47;24.10;99.90
62424;DHT22;48463;43.604;3.872;2023-07-30T04:11:13;24.10;99.90
62424;DHT22;48463;43.604;3.872;2023-07-30T04:13:38;23.90;99.90
62424;DHT22;48463;43.604;3.872;2023-07-30T04:16:04;23.60;99.90
62424;DHT22;48463;43.604;3.872;2023-07-30T04:18:29;23.60;99.90
62424;DHT22;48463;43.604;3.872;2023-07-30T04:20:55;23.80;99.90
62424;DHT22;48463;43.604;3.872;2023-07-30T04:23:21;23.60;99.90
62424;DHT22;48463;43.604;3.872;2023-07-30T04:25:49;23.70;99.90
62424;DHT22;48463;43.604;3.872;2023-07-30T04:28:15;23.80;99.90
62424;DHT22;48463;43.604;3.872;2023-07-30T04:30:41;23.90;99.90
62424;DHT22;48463;43.604;3.872;2023-07-30T04:33:06;23.90;99.90
62424;DHT22;48463;43.604;3.872;2023-07-30T04:35:32;23.90;99.90
62424;DHT22;48463;43.604;3.872;2023-07-30T04:37:58;23.80;99.90
62424;DHT22;48463;43.604;3.872;2023-07-30T04:40:23;23.80;99.90
62424;DHT22;48463;43.604;3.872;2023-07-30T04:42:49;23.80;99.90
62424;DHT22;48463;43.604;3.872;2023-07-30T04:45:14;23.90;99.90
62424;DHT22;48463;43.604;3.872;2023-07-30T04:47:40;23.90;99.90
62424;DHT22;48463;43.604;3.872;2023-07-30T04:50:06;24.00;99.90
62424;DHT22;48463;43.604;3.872;2023-07-30T04:52:32;24.00;99.90
62424;DHT22;48463;43.604;3.872;2023-07-30T04:54:57;24.00;99.90
62424;DHT22;48463;43.604;3.872;2023-07-30T04:57:23;24.00;99.90
62424;DHT22;48463;43.604;3.872;2023-07-30T04:59:49;24.10;99.90
62424;DHT22;48463;43.604;3.872;2023-07-30T05:02:14;24.10;99.90
62424;DHT22;48463;43.604;3.872;2023-07-30T05:04:40;24.00;99.90
62424;DHT22;48463;43.604;3.872;2023-07-30T05:07:06;24.00;99.90
62424;DHT22;48463;43.604;3.872;2023-07-30T05:09:31;24.00;99.90
62424;DHT22;48463;43.604;3.872;2023-07-30T05:11:57;24.00;99.90
62424;DHT22;48463;43.604;3.872;2023-07-30T05:14:23;23.90;99.90
62424;DHT22;48463;43.604;3.872;2023-07-30T05:16:48;23.90;99.90
62424;DHT22;48463;43.604;3.872;2023-07-30T05:19:15;24.00;99.90
62424;DHT22;48463;43.604;3.872;2023-07-30T05:21:40;23.90;99.90
62424;DHT22;48463;43.604;3.872;2023-07-30T05:24:07;23.90;99.90
62424;DHT22;48463;43.604;3.872;2023-07-30T05:26:32;23.90;99.90
62424;DHT22;48463;43.604;3.872;2023-07-30T05:28:58;23.90;99.90
62424;DHT22;48463;43.604;3.872;2023-07-30T05:31:24;23.90;99.90
62424;DHT22;48463;43.604;3.872;2023-07-30T05:33:49;23.90;99.90
62424;DHT22;48463;43.604;3.872;2023-07-30T05:36:15;23.90;99.90
62424;DHT22;48463;43.604;3.872;2023-07-30T05:38:40;24.00;99.90
62424;DHT22;48463;43.604;3.872;2023-07-30T05:41:06;24.00;99.90
62424;DHT22;48463;43.604;3.872;2023-07-30T05:43:32;24.00;99.90
62424;DHT22;48463;43.604;3.872;2023-07-30T05:45:57;24.00;99.90
62424;DHT22;48463;43.604;3.872;2023-07-30T05:48:23;24.00;99.90
62424;DHT22;48463;43.604;3.872;2023-07-30T05:50:49;23.80;99.90
62424;DHT22;48463;43.604;3.872;2023-07-30T05:53:14;23.90;99.90
62424;DHT22;48463;43.604;3.872;2023-07-30T05:55:40;23.90;99.90
62424;DHT22;48463;43.604;3.872;2023-07-30T05:58:06;24.00;99.90
62424;DHT22;48463;43.604;3.872;2023-07-30T06:00:31;24.10;99.90
62424;DHT22;48463;43.604;3.872;2023-07-30T06:02:57;24.10;99.90
62424;DHT22;48463;43.604;3.872;2023-07-30T06:05:23;24.10;99.90
62424;DHT22;48463;43.604;3.872;2023-07-30T06:07:48;24.10;99.90
62424;DHT22;48463;43.604;3.872;2023-07-30T06:10:14;24.10;99.90
62424;DHT22;48463;43.604;3.872;2023-07-30T06:12:40;24.20;99.90
62424;DHT22;48463;43.604;3.872;2023-07-30T06:15:06;24.20;99.90
62424;DHT22;48463;43.604;3.872;2023-07-30T06:17:32;24.10;99.90
62424;DHT22;48463;43.604;3.872;2023-07-30T06:19:57;24.10;99.90
62424;DHT22;48463;43.604;3.872;2023-07-30T06:22:23;24.10;99.90
62424;DHT22;48463;43.604;3.872;2023-07-30T06:24:48;24.00;99.90
62424;DHT22;48463;43.604;3.872;2023-07-30T06:27:14;24.10;99.90
62424;DHT22;48463;43.604;3.872;2023-07-30T06:29:40;24.10;99.90
62424;DHT22;48463;43.604;3.872;2023-07-30T06:32:06;24.20;99.90
62424;DHT22;48463;43.604;3.872;2023-07-30T06:34:31;24.20;99.90
62424;DHT22;48463;43.604;3.872;2023-07-30T06:36:57;24.20;99.90
62424;DHT22;48463;43.604;3.872;2023-07-30T06:39:23;24.10;99.90
62424;DHT22;48463;43.604;3.872;2023-07-30T06:41:48;24.30;99.90
62424;DHT22;48463;43.604;3.872;2023-07-30T06:44:14;24.30;99.90
62424;DHT22;48463;43.604;3.872;2023-07-30T06:46:39;24.40;99.90
62424;DHT22;48463;43.604;3.872;2023-07-30T06:49:05;24.40;99.90
62424;DHT22;48463;43.604;3.872;2023-07-30T06:51:31;24.50;99.90
62424;DHT22;48463;43.604;3.872;2023-07-30T06:53:56;24.60;99.90
62424;DHT22;48463;43.604;3.872;2023-07-30T06:56:22;24.60;99.90
62424;DHT22;48463;43.604;3.872;2023-07-30T06:58:48;24.60;99.90
62424;DHT22;48463;43.604;3.872;2023-07-30T07:01:13;24.70;99.90
62424;DHT22;48463;43.604;3.872;2023-07-30T07:03:39;24.80;99.90
62424;DHT22;48463;43.604;3.872;2023-07-30T07:06:04;24.80;99.90
62424;DHT22;48463;43.604;3.872;2023-07-30T07:08:30;24.80;99.90
62424;DHT22;48463;43.604;3.872;2023-07-30T07:10:56;24.90;99.90
62424;DHT22;48463;43.604;3.872;2023-07-30T07:13:21;25.00;99.90
62424;DHT22;48463;43.604;3.872;2023-07-30T07:15:47;25.00;99.90
62424;DHT22;48463;43.604;3.872;2023-07-30T07:18:13;25.00;99.90
62424;DHT22;48463;43.604;3.872;2023-07-30T07:20:39;25.00;99.90
62424;DHT22;48463;43.604;3.872;2023-07-30T07:23:04;25.10;99.90
62424;DHT22;48463;43.604;3.872;2023-07-30T07:25:30;25.10;99.90
62424;DHT22;48463;43.604;3.872;2023-07-30T07:27:56;25.20;99.90
62424;DHT22;48463;43.604;3.872;2023-07-30T07:30:21;25.30;99.90
62424;DHT22;48463;43.604;3.872;2023-07-30T07:32:47;25.30;99.90
62424;DHT22;48463;43.604;3.872;2023-07-30T07:35:16;25.30;99.90
62424;DHT22;48463;43.604;3.872;2023-07-30T07:37:43;25.60;99.90
62424;DHT22;48463;43.604;3.872;2023-07-30T07:40:09;25.80;99.90
62424;DHT22;48463;43.604;3.872;2023-07-30T07:42:35;25.80;99.90
62424;DHT22;48463;43.604;3.872;2023-07-30T07:45:01;25.80;99.90
62424;DHT22;48463;43.604;3.872;2023-07-30T07:47:27;25.80;99.90
62424;DHT22;48463;43.604;3.872;2023-07-30T07:49:52;26.10;99.90
62424;DHT22;48463;43.604;3.872;2023-07-30T07:52:18;26.10;99.90
62424;DHT22;48463;43.604;3.872;2023-07-30T07:54:44;26.40;99.70
62424;DHT22;48463;43.604;3.872;2023-07-30T07:57:10;26.50;99.10
62424;DHT22;48463;43.604;3.872;2023-07-30T07:59:36;26.70;98.80
62424;DHT22;48463;43.604;3.872;2023-07-30T08:02:02;26.60;98.00
62424;DHT22;48463;43.604;3.872;2023-07-30T08:04:28;26.80;98.30
62424;DHT22;48463;43.604;3.872;2023-07-30T08:06:53;26.90;97.60
62424;DHT22;48463;43.604;3.872;2023-07-30T08:09:19;27.20;96.90
62424;DHT22;48463;43.604;3.872;2023-07-30T08:11:45;27.30;96.40
62424;DHT22;48463;43.604;3.872;2023-07-30T08:14:10;27.30;96.10
62424;DHT22;48463;43.604;3.872;2023-07-30T08:16:36;27.30;95.40
62424;DHT22;48463;43.604;3.872;2023-07-30T08:19:01;27.30;95.50
62424;DHT22;48463;43.604;3.872;2023-07-30T08:21:27;27.00;95.30
62424;DHT22;48463;43.604;3.872;2023-07-30T08:23:53;26.90;95.20
62424;DHT22;48463;43.604;3.872;2023-07-30T08:26:18;27.00;95.50
62424;DHT22;48463;43.604;3.872;2023-07-30T08:28:44;27.10;95.00
62424;DHT22;48463;43.604;3.872;2023-07-30T08:31:09;27.10;95.10
62424;DHT22;48463;43.604;3.872;2023-07-30T08:33:35;27.30;94.90
62424;DHT22;48463;43.604;3.872;2023-07-30T08:36:01;27.50;94.80
62424;DHT22;48463;43.604;3.872;2023-07-30T08:38:27;27.60;94.80
62424;DHT22;48463;43.604;3.872;2023-07-30T08:40:53;27.70;94.20
62424;DHT22;48463;43.604;3.872;2023-07-30T08:43:19;27.70;93.90
62424;DHT22;48463;43.604;3.872;2023-07-30T08:45:45;27.80;93.00
62424;DHT22;48463;43.604;3.872;2023-07-30T08:48:10;27.90;92.70
62424;DHT22;48463;43.604;3.872;2023-07-30T08:50:36;28.00;92.70
62424;DHT22;48463;43.604;3.872;2023-07-30T08:53:03;28.20;92.50
62424;DHT22;48463;43.604;3.872;2023-07-30T08:55:29;28.20;91.80
62424;DHT22;48463;43.604;3.872;2023-07-30T08:58:01;28.40;91.70
62424;DHT22;48463;43.604;3.872;2023-07-30T09:00:30;28.40;91.70
62424;DHT22;48463;43.604;3.872;2023-07-30T09:02:59;28.60;91.60
62424;DHT22;48463;43.604;3.872;2023-07-30T09:05:25;28.30;91.60
62424;DHT22;48463;43.604;3.872;2023-07-30T09:07:54;28.30;91.50
62424;DHT22;48463;43.604;3.872;2023-07-30T09:10:20;28.10;91.60
62424;DHT22;48463;43.604;3.872;2023-07-30T09:12:52;28.50;91.70
62424;DHT22;48463;43.604;3.872;2023-07-30T09:15:19;28.70;91.10
62424;DHT22;48463;43.604;3.872;2023-07-30T09:17:45;28.60;91.00
62424;DHT22;48463;43.604;3.872;2023-07-30T09:20:11;28.90;90.90
62424;DHT22;48463;43.604;3.872;2023-07-30T09:22:36;29.20;90.80
62424;DHT22;48463;43.604;3.872;2023-07-30T09:25:05;29.20;91.00
62424;DHT22;48463;43.604;3.872;2023-07-30T09:27:32;29.10;91.20
62424;DHT22;48463;43.604;3.872;2023-07-30T09:30:02;28.90;91.70
62424;DHT22;48463;43.604;3.872;2023-07-30T09:32:32;29.10;91.60
62424;DHT22;48463;43.604;3.872;2023-07-30T09:35:08;29.10;91.40
62424;DHT22;48463;43.604;3.872;2023-07-30T09:37:41;28.80;91.50
62424;DHT22;48463;43.604;3.872;2023-07-30T09:40:08;28.70;91.40
62424;DHT22;48463;43.604;3.872;2023-07-30T09:42:35;28.80;91.30
62424;DHT22;48463;43.604;3.872;2023-07-30T09:45:05;29.00;91.20
62424;DHT22;48463;43.604;3.872;2023-07-30T09:47:32;28.80;91.30
62424;DHT22;48463;43.604;3.872;2023-07-30T09:49:59;29.00;90.90
62424;DHT22;48463;43.604;3.872;2023-07-30T09:52:25;29.00;91.10
62424;DHT22;48463;43.604;3.872;2023-07-30T09:54:52;28.90;91.00
62424;DHT22;48463;43.604;3.872;2023-07-30T09:57:17;29.00;90.70
62424;DHT22;48463;43.604;3.872;2023-07-30T09:59:43;29.20;90.60
62424;DHT22;48463;43.604;3.872;2023-07-30T10:02:10;28.90;90.20
62424;DHT22;48463;43.604;3.872;2023-07-30T10:04:41;29.00;90.30
62424;DHT22;48463;43.604;3.872;2023-07-30T10:07:12;29.00;90.10
62424;DHT22;48463;43.604;3.872;2023-07-30T10:09:42;28.80;90.20
62424;DHT22;48463;43.604;3.872;2023-07-30T10:12:30;29.10;90.40
62424;DHT22;48463;43.604;3.872;2023-07-30T10:14:56;29.30;89.20
62424;DHT22;48463;43.604;3.872;2023-07-30T10:17:22;29.70;88.60
62424;DHT22;48463;43.604;3.872;2023-07-30T10:19:49;30.00;85.60
62424;DHT22;48463;43.604;3.872;2023-07-30T10:25:04;29.80;83.50
62424;DHT22;48463;43.604;3.872;2023-07-30T10:27:40;29.80;83.60
62424;DHT22;48463;43.604;3.872;2023-07-30T10:30:14;29.60;82.40
62424;DHT22;48463;43.604;3.872;2023-07-30T10:32:41;29.90;82.70
62424;DHT22;48463;43.604;3.872;2023-07-30T10:35:07;30.10;82.10
62424;DHT22;48463;43.604;3.872;2023-07-30T10:37:33;30.30;81.70
62424;DHT22;48463;43.604;3.872;2023-07-30T10:39:58;30.10;81.30
62424;DHT22;48463;43.604;3.872;2023-07-30T10:42:33;30.20;81.30
62424;DHT22;48463;43.604;3.872;2023-07-30T10:44:59;30.10;81.20
62424;DHT22;48463;43.604;3.872;2023-07-30T10:47:27;30.30;81.10
62424;DHT22;48463;43.604;3.872;2023-07-30T10:49:53;30.30;80.70
62424;DHT22;48463;43.604;3.872;2023-07-30T10:52:24;30.50;80.30
62424;DHT22;48463;43.604;3.872;2023-07-30T10:54:59;30.60;80.00
62424;DHT22;48463;43.604;3.872;2023-07-30T10:57:32;30.80;80.00
62424;DHT22;48463;43.604;3.872;2023-07-30T11:00:02;31.10;80.00
62424;DHT22;48463;43.604;3.872;2023-07-30T11:02:28;31.00;79.70
62424;DHT22;48463;43.604;3.872;2023-07-30T11:04:55;30.50;80.00
62424;DHT22;48463;43.604;3.872;2023-07-30T11:07:20;30.10;80.00
62424;DHT22;48463;43.604;3.872;2023-07-30T11:09:58;30.00;80.00
62424;DHT22;48463;43.604;3.872;2023-07-30T11:12:25;30.40;80.20
62424;DHT22;48463;43.604;3.872;2023-07-30T11:14:51;30.70;79.80
62424;DHT22;48463;43.604;3.872;2023-07-30T11:17:18;30.70;79.60
62424;DHT22;48463;43.604;3.872;2023-07-30T11:19:43;30.80;79.30
62424;DHT22;48463;43.604;3.872;2023-07-30T11:22:09;30.60;79.30
62424;DHT22;48463;43.604;3.872;2023-07-30T11:24:36;31.10;79.30
62424;DHT22;48463;43.604;3.872;2023-07-30T11:27:03;31.40;78.80
62424;DHT22;48463;43.604;3.872;2023-07-30T11:29:29;31.40;78.30
62424;DHT22;48463;43.604;3.872;2023-07-30T11:31:59;30.90;77.60
62424;DHT22;48463;43.604;3.872;2023-07-30T11:34:26;30.70;77.90
62424;DHT22;48463;43.604;3.872;2023-07-30T11:36:53;31.00;77.70
62424;DHT22;48463;43.604;3.872;2023-07-30T11:39:19;31.10;77.50
62424;DHT22;48463;43.604;3.872;2023-07-30T11:41:45;31.20;77.50
62424;DHT22;48463;43.604;3.872;2023-07-30T11:44:33;31.40;77.30
62424;DHT22;48463;43.604;3.872;2023-07-30T11:46:59;31.60;76.90
62424;DHT22;48463;43.604;3.872;2023-07-30T11:49:25;31.50;77.00
62424;DHT22;48463;43.604;3.872;2023-07-30T11:51:51;31.20;76.00
62424;DHT22;48463;43.604;3.872;2023-07-30T11:54:21;31.40;76.50
62424;DHT22;48463;43.604;3.872;2023-07-30T11:56:54;31.50;75.80
62424;DHT22;48463;43.604;3.872;2023-07-30T11:59:20;31.80;75.60
62424;DHT22;48463;43.604;3.872;2023-07-30T12:01:47;31.50;74.90
62424;DHT22;48463;43.604;3.872;2023-07-30T12:04:12;31.60;74.60
62424;DHT22;48463;43.604;3.872;2023-07-30T12:06:56;31.60;74.40
62424;DHT22;48463;43.604;3.872;2023-07-30T12:09:23;31.60;74.30
62424;DHT22;48463;43.604;3.872;2023-07-30T12:14:21;31.70;73.10
62424;DHT22;48463;43.604;3.872;2023-07-30T12:16:47;31.40;73.30
62424;DHT22;48463;43.604;3.872;2023-07-30T12:19:13;31.80;73.30
62424;DHT22;48463;43.604;3.872;2023-07-30T12:21:39;31.90;73.00
62424;DHT22;48463;43.604;3.872;2023-07-30T12:24:05;32.10;72.50
62424;DHT22;48463;43.604;3.872;2023-07-30T12:26:31;32.20;72.00
62424;DHT22;48463;43.604;3.872;2023-07-30T12:28:56;32.00;71.80
62424;DHT22;48463;43.604;3.872;2023-07-30T12:31:22;32.00;71.60
62424;DHT22;48463;43.604;3.872;2023-07-30T12:33:48;31.90;71.80
62424;DHT22;48463;43.604;3.872;2023-07-30T12:36:14;32.20;71.70
62424;DHT22;48463;43.604;3.872;2023-07-30T12:38:40;32.10;71.50
62424;DHT22;48463;43.604;3.872;2023-07-30T12:41:05;32.50;71.10
62424;DHT22;48463;43.604;3.872;2023-07-30T12:43:31;32.50;70.60
62424;DHT22;48463;43.604;3.872;2023-07-30T12:45:57;32.30;70.30
62424;DHT22;48463;43.604;3.872;2023-07-30T12:48:22;32.50;70.20
62424;DHT22;48463;43.604;3.872;2023-07-30T12:50:48;32.40;69.60
62424;DHT22;48463;43.604;3.872;2023-07-30T12:53:14;32.30;70.00
62424;DHT22;48463;43.604;3.872;2023-07-30T12:55:39;32.10;68.90
62424;DHT22;48463;43.604;3.872;2023-07-30T12:58:05;32.20;69.30
62424;DHT22;48463;43.604;3.872;2023-07-30T13:00:32;32.60;69.30
62424;DHT22;48463;43.604;3.872;2023-07-30T13:02:58;32.20;69.10
62424;DHT22;48463;43.604;3.872;2023-07-30T13:05:24;32.40;68.60
62424;DHT22;48463;43.604;3.872;2023-07-30T13:07:50;32.50;68.80
62424;DHT22;48463;43.604;3.872;2023-07-30T13:10:15;33.00;68.80
62424;DHT22;48463;43.604;3.872;2023-07-30T13:12:41;32.90;68.20
62424;DHT22;48463;43.604;3.872;2023-07-30T13:15:07;32.70;67.80
62424;DHT22;48463;43.604;3.872;2023-07-30T13:17:33;33.30;68.20
62424;DHT22;48463;43.604;3.872;2023-07-30T13:19:58;32.90;67.70
62424;DHT22;48463;43.604;3.872;2023-07-30T13:22:26;33.40;67.60
62424;DHT22;48463;43.604;3.872;2023-07-30T13:24:51;33.50;67.30
62424;DHT22;48463;43.604;3.872;2023-07-30T13:27:18;33.00;66.70
62424;DHT22;48463;43.604;3.872;2023-07-30T13:29:44;32.70;67.10
62424;DHT22;48463;43.604;3.872;2023-07-30T13:32:11;33.00;67.20
62424;DHT22;48463;43.604;3.872;2023-07-30T13:34:37;33.10;67.10
62424;DHT22;48463;43.604;3.872;2023-07-30T13:37:03;33.70;66.90
62424;DHT22;48463;43.604;3.872;2023-07-30T13:39:29;33.70;66.30
62424;DHT22;48463;43.604;3.872;2023-07-30T13:41:54;34.00;65.90
62424;DHT22;48463;43.604;3.872;2023-07-30T13:44:20;33.70;65.80
62424;DHT22;48463;43.604;3.872;2023-07-30T13:46:46;33.60;66.60
62424;DHT22;48463;43.604;3.872;2023-07-30T13:49:12;33.70;66.20
62424;DHT22;48463;43.604;3.872;2023-07-30T13:51:37;33.70;65.80
62424;DHT22;48463;43.604;3.872;2023-07-30T13:54:03;33.50;65.50
62424;DHT22;48463;43.604;3.872;2023-07-30T13:56:29;33.90;65.70
62424;DHT22;48463;43.604;3.872;2023-07-30T13:58:55;33.80;64.90
62424;DHT22;48463;43.604;3.872;2023-07-30T14:01:21;33.40;66.00
62424;DHT22;48463;43.604;3.872;2023-07-30T14:03:47;33.80;65.30
62424;DHT22;48463;43.604;3.872;2023-07-30T14:06:13;34.00;65.30
62424;DHT22;48463;43.604;3.872;2023-07-30T14:08:39;33.80;64.80
62424;DHT22;48463;43.604;3.872;2023-07-30T14:11:04;33.60;64.80
62424;DHT22;48463;43.604;3.872;2023-07-30T14:13:30;33.70;64.80
62424;DHT22;48463;43.604;3.872;2023-07-30T14:15:57;33.90;64.60
62424;DHT22;48463;43.604;3.872;2023-07-30T14:18:24;33.50;64.80
62424;DHT22;48463;43.604;3.872;2023-07-30T14:20:50;33.80;64.80
62424;DHT22;48463;43.604;3.872;2023-07-30T14:23:16;33.50;64.70
62424;DHT22;48463;43.604;3.872;2023-07-30T14:25:42;33.60;64.90
62424;DHT22;48463;43.604;3.872;2023-07-30T14:28:07;34.20;64.60
62424;DHT22;48463;43.604;3.872;2023-07-30T14:30:33;34.10;64.10
62424;DHT22;48463;43.604;3.872;2023-07-30T14:33:03;33.90;64.00
62424;DHT22;48463;43.604;3.872;2023-07-30T14:35:29;33.90;63.80
62424;DHT22;48463;43.604;3.872;2023-07-30T14:37:55;34.00;64.00
62424;DHT22;48463;43.604;3.872;2023-07-30T14:40:21;33.80;63.80
62424;DHT22;48463;43.604;3.872;2023-07-30T14:42:47;33.70;63.60
62424;DHT22;48463;43.604;3.872;2023-07-30T14:45:13;33.90;64.10
62424;DHT22;48463;43.604;3.872;2023-07-30T14:47:38;34.10;63.60
62424;DHT22;48463;43.604;3.872;2023-07-30T14:50:05;34.30;63.90
62424;DHT22;48463;43.604;3.872;2023-07-30T14:52:31;34.10;63.30
62424;DHT22;48463;43.604;3.872;2023-07-30T14:54:57;34.00;63.20
62424;DHT22;48463;43.604;3.872;2023-07-30T14:57:22;34.10;62.90
62424;DHT22;48463;43.604;3.872;2023-07-30T14:59:48;35.10;62.70
62424;DHT22;48463;43.604;3.872;2023-07-30T15:02:14;36.30;61.70
62424;DHT22;48463;43.604;3.872;2023-07-30T15:04:39;36.90;60.20
62424;DHT22;48463;43.604;3.872;2023-07-30T15:07:05;38.00;59.70
62424;DHT22;48463;43.604;3.872;2023-07-30T15:09:31;36.50;58.40
62424;DHT22;48463;43.604;3.872;2023-07-30T15:12:00;37.80;59.30
62424;DHT22;48463;43.604;3.872;2023-07-30T15:14:26;38.80;57.90
62424;DHT22;48463;43.604;3.872;2023-07-30T15:16:53;38.70;56.90
62424;DHT22;48463;43.604;3.872;2023-07-30T15:19:18;37.80;56.70
62424;DHT22;48463;43.604;3.872;2023-07-30T15:21:44;36.50;56.50
62424;DHT22;48463;43.604;3.872;2023-07-30T15:24:10;35.10;57.90
62424;DHT22;48463;43.604;3.872;2023-07-30T15:26:35;34.10;59.30
62424;DHT22;48463;43.604;3.872;2023-07-30T15:29:01;34.20;60.00
62424;DHT22;48463;43.604;3.872;2023-07-30T15:31:27;34.20;60.30